sensor_id;sensor_type;location;lat;lon;timestamp;pressure;altitude;pressure_sealevel;temperature;humidity
54022;BME280;39936;51.058;17.220;2023-03-01T00:01:21;103235.59;;;-4.58;100.00
54022;BME280;39936;51.058;17.220;2023-03-01T00:04:48;103238.17;;;-4.46;100.00
54022;BME280;39936;51.058;17.220;2023-03-01T00:08:45;103208.86;;;-4.59;100.00
54022;BME280;39936;51.058;17.220;2023-03-01T00:12:19;103243.80;;;-4.39;100.00
54022;BME280;39936;51.058;17.220;2023-03-01T00:15:41;103242.04;;;-4.40;100.00
54022;BME280;39936;51.058;17.220;2023-03-01T00:19:18;103240.16;;;-4.45;100.00
54022;BME280;39936;51.058;17.220;2023-03-01T00:22:51;103231.30;;;-4.55;100.00
54022;BME280;39936;51.058;17.220;2023-03-01T00:26:14;103239.61;;;-4.57;100.00
54022;BME280;39936;51.058;17.220;2023-03-01T00:29:56;103236.30;;;-4.61;100.00
54022;BME280;39936;51.058;17.220;2023-03-01T00:33:43;103198.37;;;-4.87;100.00
54022;BME280;39936;51.058;17.220;2023-03-01T00:37:10;103220.46;;;-4.70;100.00
54022;BME280;39936;51.058;17.220;2023-03-01T00:41:17;103221.86;;;-4.65;100.00
54022;BME280;39936;51.058;17.220;2023-03-01T00:44:58;103204.81;;;-4.72;100.00
54022;BME280;39936;51.058;17.220;2023-03-01T00:48:41;103208.01;;;-4.76;100.00
54022;BME280;39936;51.058;17.220;2023-03-01T00:52:53;103208.24;;;-4.85;100.00
54022;BME280;39936;51.058;17.220;2023-03-01T00:57:09;103199.95;;;-4.91;100.00
54022;BME280;39936;51.058;17.220;2023-03-01T01:00:52;103210.39;;;-4.94;100.00
54022;BME280;39936;51.058;17.220;2023-03-01T01:04:18;103215.53;;;-4.96;100.00
54022;BME280;39936;51.058;17.220;2023-03-01T01:07:59;103210.28;;;-5.00;100.00
54022;BME280;39936;51.058;17.220;2023-03-01T01:11:28;103210.95;;;-4.99;100.00
54022;BME280;39936;51.058;17.220;2023-03-01T01:15:44;103205.31;;;-4.95;100.00
54022;BME280;39936;51.058;17.220;2023-03-01T01:19:25;103194.97;;;-4.90;100.00
54022;BME280;39936;51.058;17.220;2023-03-01T01:27:44;103201.60;;;-4.81;100.00
54022;BME280;39936;51.058;17.220;2023-03-01T01:31:59;103194.02;;;-4.83;100.00
54022;BME280;39936;51.058;17.220;2023-03-01T01:35:35;103151.52;;;-5.08;100.00
54022;BME280;39936;51.058;17.220;2023-03-01T01:39:19;103183.57;;;-4.97;100.00
54022;BME280;39936;51.058;17.220;2023-03-01T01:42:41;103174.95;;;-5.03;100.00
54022;BME280;39936;51.058;17.220;2023-03-01T01:50:27;103174.79;;;-5.13;100.00
54022;BME280;39936;51.058;17.220;2023-03-01T01:54:45;103170.92;;;-5.08;100.00
54022;BME280;39936;51.058;17.220;2023-03-01T01:58:10;103166.73;;;-5.07;100.00
54022;BME280;39936;51.058;17.220;2023-03-01T02:09:46;103163.93;;;-5.18;100.00
54022;BME280;39936;51.058;17.220;2023-03-01T02:13:28;103157.83;;;-5.20;100.00
54022;BME280;39936;51.058;17.220;2023-03-01T02:16:51;103147.05;;;-5.32;100.00
54022;BME280;39936;51.058;17.220;2023-03-01T02:28:31;103170.34;;;-5.51;100.00
54022;BME280;39936;51.058;17.220;2023-03-01T02:32:52;103170.53;;;-5.55;100.00
54022;BME280;39936;51.058;17.220;2023-03-01T02:37:15;103175.22;;;-5.52;100.00
54022;BME280;39936;51.058;17.220;2023-03-01T02:45:06;103180.66;;;-5.67;100.00
54022;BME280;39936;51.058;17.220;2023-03-01T02:48:26;103185.12;;;-5.74;100.00
54022;BME280;39936;51.058;17.220;2023-03-01T02:56:21;103182.84;;;-5.79;100.00
54022;BME280;39936;51.058;17.220;2023-03-01T03:04:20;103189.08;;;-5.66;100.00
54022;BME280;39936;51.058;17.220;2023-03-01T03:08:04;103180.34;;;-5.55;100.00
54022;BME280;39936;51.058;17.220;2023-03-01T03:11:55;103179.34;;;-5.56;100.00
54022;BME280;39936;51.058;17.220;2023-03-01T03:15:32;103173.31;;;-5.64;100.00
54022;BME280;39936;51.058;17.220;2023-03-01T03:19:18;103175.98;;;-5.63;100.00
54022;BME280;39936;51.058;17.220;2023-03-01T03:23:23;103171.89;;;-5.63;100.00
54022;BME280;39936;51.058;17.220;2023-03-01T03:26:51;103159.50;;;-5.67;100.00
54022;BME280;39936;51.058;17.220;2023-03-01T03:30:55;103158.27;;;-5.69;100.00
54022;BME280;39936;51.058;17.220;2023-03-01T03:34:40;103142.90;;;-5.83;100.00
54022;BME280;39936;51.058;17.220;2023-03-01T03:38:18;103151.52;;;-5.77;100.00
54022;BME280;39936;51.058;17.220;2023-03-01T03:41:47;103152.33;;;-5.78;100.00
54022;BME280;39936;51.058;17.220;2023-03-01T03:45:14;103155.51;;;-5.82;100.00
54022;BME280;39936;51.058;17.220;2023-03-01T03:48:44;103153.42;;;-5.94;100.00
54022;BME280;39936;51.058;17.220;2023-03-01T03:56:37;103148.87;;;-6.13;100.00
54022;BME280;39936;51.058;17.220;2023-03-01T04:00:00;103145.64;;;-6.10;100.00
54022;BME280;39936;51.058;17.220;2023-03-01T04:03:56;103139.80;;;-6.09;100.00
54022;BME280;39936;51.058;17.220;2023-03-01T04:07:35;103131.16;;;-6.10;100.00
54022;BME280;39936;51.058;17.220;2023-03-01T04:11:25;103126.44;;;-6.19;100.00
54022;BME280;39936;51.058;17.220;2023-03-01T04:15:07;103137.05;;;-6.14;100.00
54022;BME280;39936;51.058;17.220;2023-03-01T04:23:13;103141.05;;;-6.20;100.00
54022;BME280;39936;51.058;17.220;2023-03-01T04:30:31;103142.37;;;-6.16;100.00
54022;BME280;39936;51.058;17.220;2023-03-01T04:34:03;103106.18;;;-6.42;100.00
54022;BME280;39936;51.058;17.220;2023-03-01T04:37:52;103100.87;;;-6.47;100.00
54022;BME280;39936;51.058;17.220;2023-03-01T04:41:47;103122.36;;;-6.32;100.00
54022;BME280;39936;51.058;17.220;2023-03-01T04:45:31;103135.50;;;-6.17;100.00
54022;BME280;39936;51.058;17.220;2023-03-01T04:49:28;103093.34;;;-6.37;100.00
54022;BME280;39936;51.058;17.220;2023-03-01T04:53:49;103135.64;;;-6.07;100.00
54022;BME280;39936;51.058;17.220;2023-03-01T04:57:34;103138.55;;;-6.05;100.00
54022;BME280;39936;51.058;17.220;2023-03-01T05:01:20;103117.43;;;-6.12;100.00
54022;BME280;39936;51.058;17.220;2023-03-01T05:04:43;103139.02;;;-5.97;100.00
54022;BME280;39936;51.058;17.220;2023-03-01T05:08:33;103135.67;;;-5.98;100.00
54022;BME280;39936;51.058;17.220;2023-03-01T05:12:24;103136.38;;;-5.95;100.00
54022;BME280;39936;51.058;17.220;2023-03-01T05:15:55;103131.85;;;-5.99;100.00
54022;BME280;39936;51.058;17.220;2023-03-01T05:19:37;103136.28;;;-5.99;100.00
54022;BME280;39936;51.058;17.220;2023-03-01T05:23:55;103144.09;;;-6.13;100.00
54022;BME280;39936;51.058;17.220;2023-03-01T05:27:41;103102.70;;;-6.60;100.00
54022;BME280;39936;51.058;17.220;2023-03-01T05:31:27;103147.84;;;-6.45;100.00
54022;BME280;39936;51.058;17.220;2023-03-01T05:35:03;103147.39;;;-6.42;100.00
54022;BME280;39936;51.058;17.220;2023-03-01T05:38:56;103132.92;;;-6.42;100.00
54022;BME280;39936;51.058;17.220;2023-03-01T05:42:21;103148.29;;;-6.27;100.00
54022;BME280;39936;51.058;17.220;2023-03-01T05:49:40;103151.04;;;-6.18;100.00
54022;BME280;39936;51.058;17.220;2023-03-01T05:53:04;103153.75;;;-6.11;100.00
54022;BME280;39936;51.058;17.220;2023-03-01T05:56:50;103154.42;;;-6.10;100.00
54022;BME280;39936;51.058;17.220;2023-03-01T06:00:35;103154.66;;;-6.20;100.00
54022;BME280;39936;51.058;17.220;2023-03-01T06:04:20;103155.93;;;-6.14;100.00
54022;BME280;39936;51.058;17.220;2023-03-01T06:08:10;103152.67;;;-6.02;100.00
54022;BME280;39936;51.058;17.220;2023-03-01T06:12:04;103155.23;;;-6.01;100.00
54022;BME280;39936;51.058;17.220;2023-03-01T06:15:26;103155.52;;;-6.02;100.00
54022;BME280;39936;51.058;17.220;2023-03-01T06:18:47;103151.35;;;-6.04;100.00
54022;BME280;39936;51.058;17.220;2023-03-01T06:22:32;103150.21;;;-5.92;100.00
54022;BME280;39936;51.058;17.220;2023-03-01T06:25:57;103143.84;;;-5.73;100.00
54022;BME280;39936;51.058;17.220;2023-03-01T06:29:44;103131.48;;;-5.50;100.00
54022;BME280;39936;51.058;17.220;2023-03-01T06:33:47;103129.78;;;-5.21;100.00
54022;BME280;39936;51.058;17.220;2023-03-01T06:37:32;103095.13;;;-5.18;100.00
54022;BME280;39936;51.058;17.220;2023-03-01T06:41:11;103118.45;;;-4.69;100.00
54022;BME280;39936;51.058;17.220;2023-03-01T06:44:57;103120.16;;;-4.59;100.00
54022;BME280;39936;51.058;17.220;2023-03-01T06:48:47;103094.75;;;-4.59;100.00
54022;BME280;39936;51.058;17.220;2023-03-01T06:52:10;103109.22;;;-4.25;100.00
54022;BME280;39936;51.058;17.220;2023-03-01T06:55:33;103107.38;;;-4.12;100.00
54022;BME280;39936;51.058;17.220;2023-03-01T06:59:27;103104.95;;;-3.89;100.00
54022;BME280;39936;51.058;17.220;2023-03-01T07:03:07;103084.30;;;-3.70;100.00
54022;BME280;39936;51.058;17.220;2023-03-01T07:06:34;103098.34;;;-3.36;100.00
54022;BME280;39936;51.058;17.220;2023-03-01T07:10:04;103103.70;;;-3.08;100.00
54022;BME280;39936;51.058;17.220;2023-03-01T07:14:16;103073.01;;;-3.18;100.00
54022;BME280;39936;51.058;17.220;2023-03-01T07:17:56;103121.66;;;-3.08;100.00
54022;BME280;39936;51.058;17.220;2023-03-01T07:21:50;103084.98;;;-3.48;100.00
54022;BME280;39936;51.058;17.220;2023-03-01T07:25:27;103128.05;;;-3.20;100.00
54022;BME280;39936;51.058;17.220;2023-03-01T07:28:49;103117.59;;;-3.10;100.00
54022;BME280;39936;51.058;17.220;2023-03-01T07:32:18;103112.93;;;-2.86;100.00
54022;BME280;39936;51.058;17.220;2023-03-01T07:35:45;103108.41;;;-2.43;100.00
54022;BME280;39936;51.058;17.220;2023-03-01T07:39:22;103096.24;;;-2.07;100.00
54022;BME280;39936;51.058;17.220;2023-03-01T07:42:54;103089.75;;;-1.67;100.00
54022;BME280;39936;51.058;17.220;2023-03-01T07:46:32;103081.49;;;-1.42;100.00
54022;BME280;39936;51.058;17.220;2023-03-01T07:49:54;103079.91;;;-1.48;100.00
54022;BME280;39936;51.058;17.220;2023-03-01T07:53:13;103076.61;;;-1.51;100.00
54022;BME280;39936;51.058;17.220;2023-03-01T07:56:38;103073.09;;;-1.37;100.00
54022;BME280;39936;51.058;17.220;2023-03-01T08:00:00;103080.03;;;-1.26;100.00
54022;BME280;39936;51.058;17.220;2023-03-01T08:03:44;103075.96;;;-1.06;100.00
54022;BME280;39936;51.058;17.220;2023-03-01T08:07:38;103070.69;;;-0.71;100.00
54022;BME280;39936;51.058;17.220;2023-03-01T08:11:06;103050.63;;;-0.53;100.00
54022;BME280;39936;51.058;17.220;2023-03-01T08:14:48;103044.80;;;-0.33;100.00
54022;BME280;39936;51.058;17.220;2023-03-01T08:18:10;103040.02;;;-0.13;99.87
54022;BME280;39936;51.058;17.220;2023-03-01T08:21:47;103044.49;;;0.11;99.61
54022;BME280;39936;51.058;17.220;2023-03-01T08:25:46;103043.32;;;0.35;97.58
54022;BME280;39936;51.058;17.220;2023-03-01T08:29:10;103042.04;;;0.51;95.40
54022;BME280;39936;51.058;17.220;2023-03-01T08:32:38;103009.23;;;0.53;95.05
54022;BME280;39936;51.058;17.220;2023-03-01T08:36:48;103044.09;;;0.79;89.86
54022;BME280;39936;51.058;17.220;2023-03-01T08:40:42;103044.77;;;0.71;87.69
54022;BME280;39936;51.058;17.220;2023-03-01T08:44:19;103062.32;;;0.23;83.19
54022;BME280;39936;51.058;17.220;2023-03-01T08:47:42;103073.72;;;-0.26;79.82
54022;BME280;39936;51.058;17.220;2023-03-01T08:51:12;103030.29;;;-0.26;83.35
54022;BME280;39936;51.058;17.220;2023-03-01T08:54:39;103065.82;;;0.12;83.04
54022;BME280;39936;51.058;17.220;2023-03-01T08:58:01;103065.59;;;0.05;82.54
54022;BME280;39936;51.058;17.220;2023-03-01T09:02:20;103067.73;;;-0.03;78.11
54022;BME280;39936;51.058;17.220;2023-03-01T09:05:45;103062.52;;;-0.09;77.76
54022;BME280;39936;51.058;17.220;2023-03-01T09:09:22;103064.55;;;-0.09;77.15
54022;BME280;39936;51.058;17.220;2023-03-01T09:12:41;103060.11;;;0.02;78.90
54022;BME280;39936;51.058;17.220;2023-03-01T09:16:08;103047.70;;;-0.01;78.77
54022;BME280;39936;51.058;17.220;2023-03-01T09:19:57;103049.70;;;0.14;74.20
54022;BME280;39936;51.058;17.220;2023-03-01T09:23:20;103052.95;;;0.21;70.59
54022;BME280;39936;51.058;17.220;2023-03-01T09:27:20;103047.57;;;0.36;71.17
54022;BME280;39936;51.058;17.220;2023-03-01T09:34:29;103025.43;;;0.81;72.91
54022;BME280;39936;51.058;17.220;2023-03-01T09:37:48;103033.91;;;1.29;73.00
54022;BME280;39936;51.058;17.220;2023-03-01T09:45:06;103028.09;;;1.91;71.66
54022;BME280;39936;51.058;17.220;2023-03-01T09:48:55;103014.80;;;2.09;71.14
54022;BME280;39936;51.058;17.220;2023-03-01T09:52:41;103008.64;;;2.14;69.49
54022;BME280;39936;51.058;17.220;2023-03-01T09:56:28;103016.73;;;2.16;67.61
54022;BME280;39936;51.058;17.220;2023-03-01T10:00:37;103019.42;;;2.26;67.41
54022;BME280;39936;51.058;17.220;2023-03-01T10:11:26;103010.42;;;2.44;66.15
54022;BME280;39936;51.058;17.220;2023-03-01T10:15:32;103007.30;;;2.50;64.78
54022;BME280;39936;51.058;17.220;2023-03-01T10:18:58;103010.11;;;2.52;64.13
54022;BME280;39936;51.058;17.220;2023-03-01T10:22:29;103003.00;;;2.54;64.42
54022;BME280;39936;51.058;17.220;2023-03-01T10:33:32;102994.16;;;1.91;64.04
54022;BME280;39936;51.058;17.220;2023-03-01T10:41:08;102984.53;;;2.02;62.44
54022;BME280;39936;51.058;17.220;2023-03-01T10:49:18;102979.34;;;2.43;62.05
54022;BME280;39936;51.058;17.220;2023-03-01T10:52:42;102970.55;;;2.67;62.18
54022;BME280;39936;51.058;17.220;2023-03-01T10:56:49;102971.78;;;2.54;62.91
54022;BME280;39936;51.058;17.220;2023-03-01T11:07:30;102962.55;;;2.45;64.74
54022;BME280;39936;51.058;17.220;2023-03-01T11:11:57;102956.20;;;2.45;63.91
54022;BME280;39936;51.058;17.220;2023-03-01T11:24:05;102946.80;;;2.86;62.10
54022;BME280;39936;51.058;17.220;2023-03-01T11:28:00;102942.73;;;2.89;62.57
54022;BME280;39936;51.058;17.220;2023-03-01T11:31:59;102944.03;;;2.90;62.26
54022;BME280;39936;51.058;17.220;2023-03-01T11:36:00;102944.60;;;2.87;63.62
54022;BME280;39936;51.058;17.220;2023-03-01T11:50:29;102933.94;;;2.78;64.09
54022;BME280;39936;51.058;17.220;2023-03-01T11:57:36;102918.36;;;3.04;61.52
54022;BME280;39936;51.058;17.220;2023-03-01T12:01:17;102909.47;;;3.10;63.92
54022;BME280;39936;51.058;17.220;2023-03-01T12:05:18;102913.66;;;3.21;61.91
54022;BME280;39936;51.058;17.220;2023-03-01T12:13:44;102909.39;;;3.06;61.46
54022;BME280;39936;51.058;17.220;2023-03-01T12:17:55;102899.91;;;3.19;62.56
54022;BME280;39936;51.058;17.220;2023-03-01T12:22:08;102897.70;;;3.47;62.82
54022;BME280;39936;51.058;17.220;2023-03-01T12:44:33;102871.72;;;3.56;58.30
54022;BME280;39936;51.058;17.220;2023-03-01T12:51:32;102859.64;;;3.86;56.28
54022;BME280;39936;51.058;17.220;2023-03-01T13:07:24;102846.42;;;4.04;51.77
54022;BME280;39936;51.058;17.220;2023-03-01T13:11:19;102836.15;;;4.25;51.87
54022;BME280;39936;51.058;17.220;2023-03-01T13:15:16;102838.49;;;4.30;50.45
54022;BME280;39936;51.058;17.220;2023-03-01T13:23:07;102834.27;;;4.02;50.50
54022;BME280;39936;51.058;17.220;2023-03-01T13:27:10;102800.18;;;3.78;47.90
54022;BME280;39936;51.058;17.220;2023-03-01T13:31:06;102823.98;;;3.97;49.69
54022;BME280;39936;51.058;17.220;2023-03-01T13:42:47;102826.00;;;4.02;48.05
54022;BME280;39936;51.058;17.220;2023-03-01T13:46:25;102820.62;;;4.02;43.99
54022;BME280;39936;51.058;17.220;2023-03-01T13:50:00;102818.68;;;4.03;43.73
54022;BME280;39936;51.058;17.220;2023-03-01T13:53:24;102784.51;;;3.94;43.90
54022;BME280;39936;51.058;17.220;2023-03-01T13:56:41;102812.09;;;4.19;42.23
54022;BME280;39936;51.058;17.220;2023-03-01T14:03:53;102797.78;;;4.31;42.10
54022;BME280;39936;51.058;17.220;2023-03-01T14:07:32;102755.19;;;4.04;42.92
54022;BME280;39936;51.058;17.220;2023-03-01T14:11:37;102789.88;;;4.18;42.06
54022;BME280;39936;51.058;17.220;2023-03-01T14:15:26;102784.70;;;4.19;42.71
54022;BME280;39936;51.058;17.220;2023-03-01T14:19:28;102784.20;;;4.16;43.51
54022;BME280;39936;51.058;17.220;2023-03-01T14:22:57;102777.19;;;4.26;43.38
54022;BME280;39936;51.058;17.220;2023-03-01T14:26:36;102773.26;;;4.36;43.82
54022;BME280;39936;51.058;17.220;2023-03-01T14:30:04;102768.32;;;4.31;44.07
54022;BME280;39936;51.058;17.220;2023-03-01T14:33:56;102763.38;;;4.27;43.63
54022;BME280;39936;51.058;17.220;2023-03-01T14:38:05;102757.44;;;4.30;45.44
54022;BME280;39936;51.058;17.220;2023-03-01T14:41:35;102747.73;;;4.40;45.11
54022;BME280;39936;51.058;17.220;2023-03-01T14:45:14;102745.61;;;4.30;43.49
54022;BME280;39936;51.058;17.220;2023-03-01T14:48:32;102735.33;;;4.47;44.94
54022;BME280;39936;51.058;17.220;2023-03-01T14:56:02;102727.12;;;4.53;45.09
54022;BME280;39936;51.058;17.220;2023-03-01T15:03:48;102726.02;;;4.44;45.03
54022;BME280;39936;51.058;17.220;2023-03-01T15:07:43;102690.30;;;4.29;45.35
54022;BME280;39936;51.058;17.220;2023-03-01T15:11:23;102733.66;;;4.43;45.60
54022;BME280;39936;51.058;17.220;2023-03-01T15:14:44;102735.84;;;4.41;45.38
54022;BME280;39936;51.058;17.220;2023-03-01T15:22:14;102727.52;;;4.44;47.36
54022;BME280;39936;51.058;17.220;2023-03-01T15:26:16;102726.74;;;4.52;47.75
54022;BME280;39936;51.058;17.220;2023-03-01T15:29:32;102727.54;;;4.47;46.32
54022;BME280;39936;51.058;17.220;2023-03-01T15:33:44;102732.27;;;4.35;45.02
54022;BME280;39936;51.058;17.220;2023-03-01T15:44:49;102733.98;;;4.11;47.39
54022;BME280;39936;51.058;17.220;2023-03-01T15:48:38;102733.35;;;4.07;48.10
54022;BME280;39936;51.058;17.220;2023-03-01T15:52:36;102735.22;;;4.05;48.38
54022;BME280;39936;51.058;17.220;2023-03-01T15:56:21;102741.10;;;3.94;48.26
54022;BME280;39936;51.058;17.220;2023-03-01T16:00:05;102751.13;;;3.89;47.48
54022;BME280;39936;51.058;17.220;2023-03-01T16:03:49;102754.76;;;3.80;48.00
54022;BME280;39936;51.058;17.220;2023-03-01T16:11:39;102756.13;;;3.64;48.45
54022;BME280;39936;51.058;17.220;2023-03-01T16:15:19;102760.39;;;3.61;48.40
54022;BME280;39936;51.058;17.220;2023-03-01T16:18:59;102763.43;;;3.53;49.47
54022;BME280;39936;51.058;17.220;2023-03-01T16:22:35;102757.81;;;3.34;53.83
54022;BME280;39936;51.058;17.220;2023-03-01T16:26:17;102767.09;;;3.24;54.79
54022;BME280;39936;51.058;17.220;2023-03-01T16:30:18;102760.07;;;3.13;55.70
54022;BME280;39936;51.058;17.220;2023-03-01T16:34:05;102758.20;;;3.01;57.05
54022;BME280;39936;51.058;17.220;2023-03-01T16:37:25;102764.59;;;2.87;57.40
54022;BME280;39936;51.058;17.220;2023-03-01T16:41:11;102729.97;;;2.55;57.36
54022;BME280;39936;51.058;17.220;2023-03-01T16:44:46;102740.41;;;2.53;57.21
54022;BME280;39936;51.058;17.220;2023-03-01T16:48:08;102784.47;;;2.63;57.93
54022;BME280;39936;51.058;17.220;2023-03-01T16:51:47;102761.05;;;2.36;59.02
54022;BME280;39936;51.058;17.220;2023-03-01T16:55:44;102783.55;;;2.34;60.03
54022;BME280;39936;51.058;17.220;2023-03-01T17:03:02;102794.85;;;2.11;60.03
54022;BME280;39936;51.058;17.220;2023-03-01T17:06:53;102763.17;;;1.80;59.81
54022;BME280;39936;51.058;17.220;2023-03-01T17:11:11;102796.19;;;1.87;59.89
54022;BME280;39936;51.058;17.220;2023-03-01T17:15:12;102790.62;;;1.70;59.73
54022;BME280;39936;51.058;17.220;2023-03-01T17:19:06;102796.53;;;1.57;61.44
54022;BME280;39936;51.058;17.220;2023-03-01T17:30:41;102794.31;;;0.88;65.52
54022;BME280;39936;51.058;17.220;2023-03-01T17:34:19;102785.87;;;0.62;65.87
54022;BME280;39936;51.058;17.220;2023-03-01T17:42:05;102797.02;;;0.27;66.79
54022;BME280;39936;51.058;17.220;2023-03-01T17:45:31;102815.34;;;0.18;69.06
54022;BME280;39936;51.058;17.220;2023-03-01T17:49:32;102812.84;;;0.04;71.11
54022;BME280;39936;51.058;17.220;2023-03-01T17:52:50;102813.35;;;-0.13;72.08
54022;BME280;39936;51.058;17.220;2023-03-01T17:57:05;102814.69;;;-0.28;72.77
54022;BME280;39936;51.058;17.220;2023-03-01T18:00:23;102802.08;;;-0.52;74.10
54022;BME280;39936;51.058;17.220;2023-03-01T18:04:24;102805.38;;;-0.60;73.81
54022;BME280;39936;51.058;17.220;2023-03-01T18:08:05;102807.42;;;-0.68;73.22
54022;BME280;39936;51.058;17.220;2023-03-01T18:11:42;102811.37;;;-0.73;73.01
54022;BME280;39936;51.058;17.220;2023-03-01T18:15:27;102810.48;;;-0.76;73.80
54022;BME280;39936;51.058;17.220;2023-03-01T18:19:11;102815.97;;;-0.80;74.29
54022;BME280;39936;51.058;17.220;2023-03-01T18:22:44;102818.14;;;-0.89;76.24
54022;BME280;39936;51.058;17.220;2023-03-01T18:26:26;102818.12;;;-1.01;77.16
54022;BME280;39936;51.058;17.220;2023-03-01T18:29:49;102787.62;;;-1.30;77.26
54022;BME280;39936;51.058;17.220;2023-03-01T18:33:31;102816.20;;;-1.21;77.22
54022;BME280;39936;51.058;17.220;2023-03-01T18:36:50;102810.87;;;-1.27;77.34
54022;BME280;39936;51.058;17.220;2023-03-01T18:44:24;102770.55;;;-1.64;78.68
54022;BME280;39936;51.058;17.220;2023-03-01T18:47:46;102812.26;;;-1.41;82.99
54022;BME280;39936;51.058;17.220;2023-03-01T18:51:58;102812.34;;;-1.45;83.98
54022;BME280;39936;51.058;17.220;2023-03-01T18:55:29;102808.27;;;-1.55;83.95
54022;BME280;39936;51.058;17.220;2023-03-01T18:59:21;102802.30;;;-1.63;86.70
54022;BME280;39936;51.058;17.220;2023-03-01T19:03:35;102797.67;;;-1.78;90.05
54022;BME280;39936;51.058;17.220;2023-03-01T19:07:50;102796.27;;;-1.85;89.59
54022;BME280;39936;51.058;17.220;2023-03-01T19:11:22;102789.02;;;-1.98;92.30
54022;BME280;39936;51.058;17.220;2023-03-01T19:15:10;102794.16;;;-2.10;94.99
54022;BME280;39936;51.058;17.220;2023-03-01T19:18:49;102797.12;;;-2.19;92.69
54022;BME280;39936;51.058;17.220;2023-03-01T19:22:15;102795.77;;;-2.18;91.23
54022;BME280;39936;51.058;17.220;2023-03-01T19:26:24;102794.23;;;-2.21;90.20
54022;BME280;39936;51.058;17.220;2023-03-01T19:30:24;102798.41;;;-2.25;89.35
54022;BME280;39936;51.058;17.220;2023-03-01T19:33:50;102800.21;;;-2.30;89.00
54022;BME280;39936;51.058;17.220;2023-03-01T19:37:39;102801.86;;;-2.34;89.10
54022;BME280;39936;51.058;17.220;2023-03-01T19:41:56;102758.35;;;-2.64;88.96
54022;BME280;39936;51.058;17.220;2023-03-01T19:49:13;102804.77;;;-2.48;88.76
54022;BME280;39936;51.058;17.220;2023-03-01T19:57:08;102807.49;;;-2.61;88.62
54022;BME280;39936;51.058;17.220;2023-03-01T20:00:56;102803.19;;;-2.65;88.65
54022;BME280;39936;51.058;17.220;2023-03-01T20:04:40;102805.73;;;-2.78;97.33
54022;BME280;39936;51.058;17.220;2023-03-01T20:08:12;102807.16;;;-2.87;97.68
54022;BME280;39936;51.058;17.220;2023-03-01T20:12:16;102812.16;;;-2.84;98.14
54022;BME280;39936;51.058;17.220;2023-03-01T20:15:59;102812.44;;;-2.89;98.92
54022;BME280;39936;51.058;17.220;2023-03-01T20:19:44;102811.40;;;-2.90;97.23
54022;BME280;39936;51.058;17.220;2023-03-01T20:23:21;102812.38;;;-2.88;96.05
54022;BME280;39936;51.058;17.220;2023-03-01T20:26:59;102808.83;;;-2.88;95.28
54022;BME280;39936;51.058;17.220;2023-03-01T20:31:00;102806.23;;;-2.91;94.65
54022;BME280;39936;51.058;17.220;2023-03-01T20:34:45;102800.59;;;-2.93;94.10
54022;BME280;39936;51.058;17.220;2023-03-01T20:38:30;102802.10;;;-2.95;93.78
54022;BME280;39936;51.058;17.220;2023-03-01T20:42:23;102757.75;;;-3.24;93.77
54022;BME280;39936;51.058;17.220;2023-03-01T20:45:45;102791.73;;;-3.01;93.97
54022;BME280;39936;51.058;17.220;2023-03-01T20:49:26;102791.45;;;-3.06;93.86
54022;BME280;39936;51.058;17.220;2023-03-01T20:53:04;102786.85;;;-3.12;93.98
54022;BME280;39936;51.058;17.220;2023-03-01T20:56:46;102785.96;;;-3.25;97.47
54022;BME280;39936;51.058;17.220;2023-03-01T21:00:12;102796.73;;;-3.42;99.25
54022;BME280;39936;51.058;17.220;2023-03-01T21:07:56;102771.95;;;-3.70;100.00
54022;BME280;39936;51.058;17.220;2023-03-01T21:11:48;102793.52;;;-3.48;100.00
54022;BME280;39936;51.058;17.220;2023-03-01T21:19:50;102801.58;;;-3.38;100.00
54022;BME280;39936;51.058;17.220;2023-03-01T21:23:49;102802.13;;;-3.35;100.00
54022;BME280;39936;51.058;17.220;2023-03-01T21:27:29;102795.08;;;-3.35;100.00
54022;BME280;39936;51.058;17.220;2023-03-01T21:31:19;102796.80;;;-3.35;100.00
54022;BME280;39936;51.058;17.220;2023-03-01T21:34:53;102774.09;;;-3.39;100.00
54022;BME280;39936;51.058;17.220;2023-03-01T21:38:39;102788.91;;;-3.32;100.00
54022;BME280;39936;51.058;17.220;2023-03-01T21:42:01;102788.11;;;-3.53;100.00
54022;BME280;39936;51.058;17.220;2023-03-01T21:45:23;102797.62;;;-3.59;100.00
54022;BME280;39936;51.058;17.220;2023-03-01T21:49:11;102799.66;;;-3.67;100.00
54022;BME280;39936;51.058;17.220;2023-03-01T21:53:03;102790.98;;;-3.70;100.00
54022;BME280;39936;51.058;17.220;2023-03-01T21:56:59;102765.84;;;-3.82;100.00
54022;BME280;39936;51.058;17.220;2023-03-01T22:01:10;102797.55;;;-3.67;100.00
54022;BME280;39936;51.058;17.220;2023-03-01T22:08:32;102800.09;;;-3.70;100.00
54022;BME280;39936;51.058;17.220;2023-03-01T22:12:29;102799.27;;;-3.72;100.00
54022;BME280;39936;51.058;17.220;2023-03-01T22:16:10;102795.70;;;-3.91;100.00
54022;BME280;39936;51.058;17.220;2023-03-01T22:20:28;102786.03;;;-4.01;100.00
54022;BME280;39936;51.058;17.220;2023-03-01T22:24:02;102782.90;;;-3.92;100.00
54022;BME280;39936;51.058;17.220;2023-03-01T22:27:32;102758.95;;;-4.08;100.00
54022;BME280;39936;51.058;17.220;2023-03-01T22:31:06;102785.11;;;-3.98;100.00
54022;BME280;39936;51.058;17.220;2023-03-01T22:34:58;102770.12;;;-4.09;100.00
54022;BME280;39936;51.058;17.220;2023-03-01T22:39:10;102775.91;;;-4.01;100.00
54022;BME280;39936;51.058;17.220;2023-03-01T22:42:52;102772.50;;;-4.02;100.00
54022;BME280;39936;51.058;17.220;2023-03-01T22:46:55;102766.28;;;-4.09;100.00
54022;BME280;39936;51.058;17.220;2023-03-01T22:50:17;102778.70;;;-4.08;100.00
54022;BME280;39936;51.058;17.220;2023-03-01T22:54:30;102778.89;;;-4.13;100.00
54022;BME280;39936;51.058;17.220;2023-03-01T22:58:26;102788.72;;;-4.18;100.00